createdAt,value
2023-05-19T00:01:45.504Z,95438.66
2023-05-19T00:04:15.505Z,95441.31
2023-05-19T00:06:42.424Z,95432.28
2023-05-19T00:09:10.538Z,95424.00
2023-05-19T00:11:38.687Z,95427.00
2023-05-19T00:14:10.072Z,95431.50
2023-05-19T00:16:38.004Z,95432.63
2023-05-19T00:19:32.274Z,95437.50
2023-05-19T00:21:59.188Z,95421.31
2023-05-19T00:24:25.855Z,95423.91
2023-05-19T00:26:52.389Z,95427.66
2023-05-19T00:29:19.148Z,95422.38
2023-05-19T00:31:46.383Z,95423.91
2023-05-19T00:34:13.010Z,95420.13
2023-05-19T00:36:39.557Z,95420.47
2023-05-19T00:39:06.173Z,95411.81
2023-05-19T00:41:32.882Z,95417.09
2023-05-19T00:43:59.958Z,95409.56
2023-05-19T00:46:26.507Z,95416.31
2023-05-19T00:48:53.201Z,95406.56
2023-05-19T00:51:20.204Z,95412.19
2023-05-19T00:53:49.476Z,95408.78
2023-05-19T00:56:16.937Z,95406.50
2023-05-19T00:58:44.566Z,95409.53
2023-05-19T01:01:12.140Z,95402.69
2023-05-19T01:03:40.987Z,95398.94
2023-05-19T01:06:08.241Z,95402.69
2023-05-19T01:08:37.288Z,95402.69
2023-05-19T01:11:08.293Z,95398.88
2023-05-19T01:13:36.465Z,95393.63
2023-05-19T01:16:09.779Z,95395.50
2023-05-19T01:18:50.122Z,95389.06
2023-05-19T01:21:23.630Z,95382.69
2023-05-19T01:24:11.516Z,95377.75
2023-05-19T01:27:11.867Z,95383.78
2023-05-19T01:29:41.890Z,95387.56
2023-05-19T01:32:10.634Z,95387.94
2023-05-19T01:34:42.991Z,95386.03
2023-05-19T01:37:10.040Z,95376.69
2023-05-19T01:39:37.421Z,95378.16
2023-05-19T01:42:04.788Z,95378.16
2023-05-19T01:44:32.962Z,95375.91
2023-05-19T01:47:00.837Z,95372.53
2023-05-19T01:49:27.499Z,95382.34
2023-05-19T01:51:54.188Z,95382.28
2023-05-19T01:54:20.758Z,95373.25
2023-05-19T01:57:11.672Z,95378.53
2023-05-19T01:59:56.231Z,95378.53
2023-05-19T02:02:35.026Z,95377.03
2023-05-19T02:05:13.504Z,95376.22
2023-05-19T02:08:00.752Z,95371.28
2023-05-19T02:10:33.127Z,95387.47
2023-05-19T02:13:04.571Z,95389.34
2023-05-19T02:15:38.762Z,95384.03
2023-05-19T02:18:06.442Z,95389.66
2023-05-19T02:20:33.490Z,95383.63
2023-05-19T02:23:00.460Z,95389.59
2023-05-19T02:25:27.290Z,95391.06
2023-05-19T02:27:54.981Z,95390.34
2023-05-19T02:30:21.773Z,95390.34
2023-05-19T02:32:48.422Z,95397.06
2023-05-19T02:35:15.732Z,95388.72
2023-05-19T02:37:42.355Z,95390.25
2023-05-19T02:40:09.467Z,95389.50
2023-05-19T02:42:36.141Z,95391.72
2023-05-19T02:45:02.744Z,95385.69
2023-05-19T02:47:29.448Z,95381.13
2023-05-19T02:49:56.192Z,95391.31
2023-05-19T02:52:22.849Z,95380.41
2023-05-19T02:54:49.431Z,95381.22
2023-05-19T02:57:16.013Z,95386.41
2023-05-19T02:59:43.260Z,95383.41
2023-05-19T03:02:09.898Z,95382.63
2023-05-19T03:04:41.774Z,95377.25
2023-05-19T03:07:13.494Z,95383.28
2023-05-19T03:09:40.281Z,95377.69
2023-05-19T03:12:07.824Z,95379.47
2023-05-19T03:14:35.187Z,95373.47
2023-05-19T03:17:01.932Z,95370.41
2023-05-19T03:19:28.735Z,95368.50
2023-05-19T03:21:56.449Z,95371.84
2023-05-19T03:24:23.168Z,95371.84
2023-05-19T03:26:50.416Z,95372.97
2023-05-19T03:29:17.070Z,95371.03
2023-05-19T03:31:43.788Z,95373.34
2023-05-19T03:34:10.425Z,95372.59
2023-05-19T03:36:40.237Z,95367.78
2023-05-19T03:39:07.003Z,95360.59
2023-05-19T03:41:33.586Z,95366.56
2023-05-19T03:44:00.299Z,95371.41
2023-05-19T03:46:26.934Z,95373.25
2023-05-19T03:48:53.658Z,95369.59
2023-05-19T03:51:20.275Z,95372.59
2023-05-19T03:53:47.017Z,95376.78
2023-05-19T03:56:13.905Z,95373.34
2023-05-19T03:58:45.008Z,95369.22
2023-05-19T04:01:11.916Z,95372.69
2023-05-19T04:03:38.686Z,95362.13
2023-05-19T04:06:05.547Z,95372.69
2023-05-19T04:08:32.328Z,95374.97
2023-05-19T04:10:58.906Z,95371.94
2023-05-19T04:13:25.535Z,95380.97
2023-05-19T04:15:52.466Z,95379.59
2023-05-19T04:18:19.211Z,95373.56
2023-05-19T04:20:45.868Z,95378.03
2023-05-19T04:23:12.541Z,95372.81
2023-05-19T04:25:40.836Z,95375.84
2023-05-19T04:28:07.753Z,95375.88
2023-05-19T04:30:34.776Z,95386.03
2023-05-19T04:33:03.574Z,95383.44
2023-05-19T04:35:30.260Z,95377.50
2023-05-19T04:37:56.873Z,95385.38
2023-05-19T04:40:23.972Z,95381.69
2023-05-19T04:42:52.449Z,95386.56
2023-05-19T04:45:19.180Z,95385.06
2023-05-19T04:47:48.308Z,95392.59
2023-05-19T04:50:16.376Z,95401.66
2023-05-19T04:52:45.598Z,95406.84
2023-05-19T04:55:13.351Z,95406.13
2023-05-19T04:57:40.485Z,95398.63
2023-05-19T05:00:12.894Z,95404.00
2023-05-19T05:02:39.659Z,95410.03
2023-05-19T05:05:06.926Z,95404.00
2023-05-19T05:07:33.563Z,95399.13
2023-05-19T05:10:00.223Z,95401.09
2023-05-19T05:12:27.469Z,95396.97
2023-05-19T05:14:54.518Z,95398.97
2023-05-19T05:17:21.785Z,95400.47
2023-05-19T05:19:48.809Z,95402.06
2023-05-19T05:22:16.437Z,95405.06
2023-05-19T05:24:43.320Z,95400.22
2023-05-19T05:27:10.426Z,95408.91
2023-05-19T05:29:37.249Z,95409.66
2023-05-19T05:32:04.027Z,95414.97
2023-05-19T05:34:30.832Z,95413.06
2023-05-19T05:36:57.411Z,95408.53
2023-05-19T05:39:23.944Z,95405.13
2023-05-19T05:41:50.614Z,95404.34
2023-05-19T05:44:17.169Z,95400.97
2023-05-19T05:46:44.073Z,95400.91
2023-05-19T05:49:12.526Z,95392.66
2023-05-19T05:51:40.074Z,95401.75
2023-05-19T05:54:07.789Z,95403.63
2023-05-19T05:56:36.874Z,95394.22
2023-05-19T05:59:03.550Z,95398.34
2023-05-19T06:01:34.842Z,95395.31
2023-05-19T06:04:02.286Z,95395.63
2023-05-19T06:06:29.068Z,95390.75
2023-05-19T06:08:55.845Z,95389.91
2023-05-19T06:11:22.612Z,95396.38
2023-05-19T06:13:49.270Z,95394.13
2023-05-19T06:16:15.867Z,95388.47
2023-05-19T06:18:42.723Z,95394.06
2023-05-19T06:21:10.397Z,95390.63
2023-05-19T06:23:37.316Z,95386.09
2023-05-19T06:26:03.993Z,95392.91
2023-05-19T06:28:30.620Z,95394.47
2023-05-19T06:30:57.720Z,95391.81
2023-05-19T06:33:26.147Z,95388.00
2023-05-19T06:35:54.801Z,95383.09
2023-05-19T06:38:21.427Z,95386.13
2023-05-19T06:40:48.437Z,95399.28
2023-05-19T06:43:15.009Z,95395.97
2023-05-19T06:45:41.630Z,95400.84
2023-05-19T06:48:08.211Z,95392.84
2023-05-19T06:50:34.969Z,95381.97
2023-05-19T06:53:01.893Z,95395.19
2023-05-19T06:55:28.448Z,95399.28
2023-05-19T06:57:55.159Z,95401.56
2023-05-19T07:00:23.853Z,95401.22
2023-05-19T07:02:51.060Z,95393.25
2023-05-19T07:05:17.943Z,95383.47
2023-05-19T07:07:44.565Z,95392.53
2023-05-19T07:10:11.453Z,95392.91
2023-05-19T07:12:38.084Z,95399.78
2023-05-19T07:15:05.183Z,95407.38
2023-05-19T07:17:31.952Z,95400.56
2023-05-19T07:19:58.964Z,95400.16
2023-05-19T07:22:25.574Z,95400.94
2023-05-19T07:24:52.264Z,95394.13
2023-05-19T07:27:19.220Z,95392.16
2023-05-19T07:29:45.819Z,95377.06
2023-05-19T07:32:12.480Z,95383.19
2023-05-19T07:34:39.116Z,95391.13
2023-05-19T07:37:05.729Z,95386.06
2023-05-19T07:39:33.562Z,95386.22
2023-05-19T07:42:00.250Z,95387.03
2023-05-19T07:44:27.320Z,95393.03
2023-05-19T07:46:54.726Z,95386.56
2023-05-19T07:49:21.246Z,95383.59
2023-05-19T07:51:47.859Z,95378.94
2023-05-19T07:54:14.477Z,95388.06
2023-05-19T07:56:41.415Z,95379.97
2023-05-19T07:59:08.124Z,95390.00
2023-05-19T08:01:34.846Z,95386.47
2023-05-19T08:04:01.563Z,95382.06
2023-05-19T08:06:30.074Z,95376.56
2023-05-19T08:08:56.627Z,95372.13
2023-05-19T08:11:23.228Z,95377.69
2023-05-19T08:13:49.882Z,95380.78
2023-05-19T08:16:16.785Z,95379.91
2023-05-19T08:18:43.712Z,95378.00
2023-05-19T08:21:10.333Z,95383.03
2023-05-19T08:23:37.690Z,95373.84
2023-05-19T08:26:04.868Z,95377.72
2023-05-19T08:28:31.585Z,95365.41
2023-05-19T08:30:58.189Z,95355.94
2023-05-19T08:33:24.829Z,95363.47
2023-05-19T08:35:51.423Z,95347.91
2023-05-19T08:38:18.042Z,95353.69
2023-05-19T08:40:47.370Z,95351.28
2023-05-19T08:43:14.160Z,95344.41
2023-05-19T08:45:48.264Z,95350.06
2023-05-19T08:48:17.539Z,95362.91
2023-05-19T08:50:53.049Z,95354.47
2023-05-19T08:53:33.366Z,95344.75
2023-05-19T08:56:10.779Z,95347.41
2023-05-19T08:58:43.763Z,95349.25
2023-05-19T09:01:17.060Z,95351.19
2023-05-19T09:03:45.766Z,95340.38
2023-05-19T09:06:13.597Z,95345.78
2023-05-19T09:08:41.724Z,95351.06
2023-05-19T09:11:12.137Z,95347.44
2023-05-19T09:13:39.180Z,95338.50
2023-05-19T09:16:06.599Z,95341.84
2023-05-19T09:18:33.363Z,95335.41
2023-05-19T09:21:02.793Z,95349.06
2023-05-19T09:23:35.329Z,95345.00
2023-05-19T09:26:07.893Z,95340.00
2023-05-19T09:28:38.839Z,95349.78
2023-05-19T09:31:09.887Z,95338.56
2023-05-19T09:33:45.612Z,95350.63
2023-05-19T09:36:12.895Z,95337.69
2023-05-19T09:38:40.514Z,95333.66
2023-05-19T09:41:08.950Z,95339.59
2023-05-19T09:43:36.441Z,95340.44
2023-05-19T09:46:08.253Z,95335.53
2023-05-19T09:48:36.466Z,95351.22
2023-05-19T09:51:05.385Z,95327.38
2023-05-19T09:53:32.709Z,95336.63
2023-05-19T09:56:02.024Z,95341.13
2023-05-19T09:58:34.599Z,95339.56
2023-05-19T10:01:01.758Z,95339.81
2023-05-19T10:03:28.488Z,95338.75
2023-05-19T10:05:55.869Z,95331.25
2023-05-19T10:08:24.512Z,95330.41
2023-05-19T10:10:51.439Z,95318.25
2023-05-19T10:13:18.519Z,95313.59
2023-05-19T10:18:21.459Z,95330.72
2023-05-19T10:20:50.199Z,95333.56
2023-05-19T10:23:17.124Z,95324.41
2023-05-19T10:25:44.654Z,95318.66
2023-05-19T10:28:16.843Z,95318.22
2023-05-19T10:30:46.556Z,95315.00
2023-05-19T10:33:17.293Z,95321.25
2023-05-19T10:36:14.748Z,95321.34
2023-05-19T10:38:53.430Z,95324.41
2023-05-19T10:41:34.878Z,95311.41
2023-05-19T10:44:11.059Z,95321.53
2023-05-19T10:46:40.687Z,95320.75
2023-05-19T10:49:10.397Z,95328.72
2023-05-19T10:51:37.246Z,95327.41
2023-05-19T10:54:10.468Z,95319.44
2023-05-19T10:56:42.477Z,95320.41
2023-05-19T10:59:33.025Z,95326.63
2023-05-19T11:02:08.987Z,95328.56
2023-05-19T11:04:51.912Z,95314.38
2023-05-19T11:07:20.666Z,95310.13
2023-05-19T11:09:52.100Z,95307.09
2023-05-19T11:12:24.716Z,95310.34
2023-05-19T11:14:55.577Z,95307.44
2023-05-19T11:17:25.148Z,95308.78
2023-05-19T11:19:57.213Z,95313.97
2023-05-19T11:22:26.188Z,95306.03
2023-05-19T11:24:55.674Z,95314.44
2023-05-19T11:27:32.904Z,95306.19
2023-05-19T11:30:14.687Z,95314.19
2023-05-19T11:32:44.226Z,95307.38
2023-05-19T11:35:11.224Z,95311.03
2023-05-19T11:37:37.989Z,95306.47
2023-05-19T11:40:08.838Z,95298.84
2023-05-19T11:42:37.189Z,95294.22
2023-05-19T11:45:05.090Z,95301.72
2023-05-19T11:47:46.017Z,95300.56
2023-05-19T11:50:19.103Z,95281.69
2023-05-19T11:52:47.750Z,95289.03
2023-05-19T11:55:25.067Z,95296.84
2023-05-19T12:00:30.501Z,95273.69
2023-05-19T12:02:58.021Z,95284.56
2023-05-19T12:05:25.934Z,95280.00
2023-05-19T12:07:53.199Z,95272.59
2023-05-19T12:10:31.470Z,95267.72
2023-05-19T12:12:58.594Z,95283.72
2023-05-19T12:15:25.843Z,95276.53
2023-05-19T12:18:02.546Z,95279.00
2023-05-19T12:20:36.217Z,95270.44
2023-05-19T12:23:04.096Z,95273.19
2023-05-19T12:25:33.367Z,95267.56
2023-05-19T12:28:04.881Z,95272.38
2023-05-19T12:30:33.153Z,95276.78
2023-05-19T12:33:02.038Z,95267.22
2023-05-19T12:35:30.618Z,95266.22
2023-05-19T12:37:57.871Z,95270.69
2023-05-19T12:40:25.894Z,95257.72
2023-05-19T12:42:59.248Z,95268.28
2023-05-19T12:45:28.092Z,95257.91
2023-05-19T12:47:54.927Z,95256.22
2023-05-19T12:50:21.568Z,95260.78
2023-05-19T12:52:52.116Z,95264.09
2023-05-19T12:55:20.963Z,95266.66
2023-05-19T12:57:54.713Z,95267.09
2023-05-19T13:00:25.180Z,95259.84
2023-05-19T13:02:57.828Z,95263.84
2023-05-19T13:05:24.831Z,95264.94
2023-05-19T13:08:06.154Z,95262.53
2023-05-19T13:10:34.501Z,95260.88
2023-05-19T13:13:01.632Z,95268.84
2023-05-19T13:15:35.464Z,95262.88
2023-05-19T13:18:04.545Z,95266.97
2023-05-19T13:20:31.259Z,95256.66
2023-05-19T13:22:57.994Z,95263.38
2023-05-19T13:25:24.786Z,95258.38
2023-05-19T13:27:51.421Z,95248.00
2023-05-19T13:30:19.092Z,95269.28
2023-05-19T13:32:46.119Z,95267.44
2023-05-19T13:35:14.120Z,95250.94
2023-05-19T13:37:43.783Z,95263.50
2023-05-19T13:40:11.225Z,95266.38
2023-05-19T13:42:38.149Z,95266.47
2023-05-19T13:45:05.249Z,95267.19
2023-05-19T13:47:32.134Z,95264.53
2023-05-19T13:49:58.900Z,95266.19
2023-05-19T13:52:27.516Z,95271.06
2023-05-19T13:54:56.699Z,95273.16
2023-05-19T13:57:26.604Z,95289.31
2023-05-19T14:00:02.709Z,95274.06
2023-05-19T14:02:30.880Z,95264.75
2023-05-19T14:04:57.896Z,95268.59
2023-05-19T14:07:25.705Z,95269.53
2023-05-19T14:09:52.917Z,95259.16
2023-05-19T14:12:23.208Z,95268.72
2023-05-19T14:14:52.164Z,95267.25
2023-05-19T14:17:19.028Z,95260.66
2023-05-19T14:19:45.649Z,95274.34
2023-05-19T14:22:13.464Z,95263.72
2023-05-19T14:24:40.083Z,95270.50
2023-05-19T14:27:06.773Z,95256.28
2023-05-19T14:29:33.947Z,95261.56
2023-05-19T14:32:00.846Z,95267.97
2023-05-19T14:34:27.532Z,95264.88
2023-05-19T14:36:54.113Z,95262.34
2023-05-19T14:39:21.093Z,95269.25
2023-05-19T14:41:49.430Z,95266.25
2023-05-19T14:44:16.066Z,95261.09
2023-05-19T14:46:42.864Z,95259.25
2023-05-19T14:49:09.645Z,95263.16
2023-05-19T14:51:36.405Z,95264.56
2023-05-19T14:54:03.126Z,95257.31
2023-05-19T14:56:29.718Z,95255.97
2023-05-19T14:58:56.530Z,95252.44
2023-05-19T15:01:23.321Z,95256.31
2023-05-19T15:03:50.041Z,95256.63
2023-05-19T15:06:16.670Z,95258.53
2023-05-19T15:08:43.390Z,95255.88
2023-05-19T15:11:10.157Z,95261.19
2023-05-19T15:13:36.929Z,95255.97
2023-05-19T15:16:16.277Z,95253.00
2023-05-19T15:18:44.792Z,95263.78
2023-05-19T15:21:11.873Z,95258.47
2023-05-19T15:23:38.543Z,95257.16
2023-05-19T15:26:05.522Z,95259.63
2023-05-19T15:28:32.411Z,95254.03
2023-05-19T15:30:59.130Z,95259.16
2023-05-19T15:33:25.829Z,95255.75
2023-05-19T15:35:52.549Z,95255.44
2023-05-19T15:38:19.636Z,95246.31
2023-05-19T15:40:46.958Z,95250.22
2023-05-19T15:43:14.143Z,95248.97
2023-05-19T15:45:41.104Z,95251.75
2023-05-19T15:48:08.299Z,95238.25
2023-05-19T15:50:35.568Z,95246.97
2023-05-19T15:53:02.454Z,95248.81
2023-05-19T15:55:29.212Z,95256.00
2023-05-19T15:57:56.082Z,95250.09
2023-05-19T16:00:22.698Z,95248.00
2023-05-19T16:02:49.385Z,95255.50
2023-05-19T16:05:16.791Z,95252.59
2023-05-19T16:07:43.464Z,95255.34
2023-05-19T16:10:10.205Z,95259.22
2023-05-19T16:12:37.093Z,95245.50
2023-05-19T16:15:04.116Z,95244.44
2023-05-19T16:17:30.979Z,95248.19
2023-05-19T16:19:57.667Z,95243.00
2023-05-19T16:22:24.990Z,95238.13
2023-05-19T16:24:52.333Z,95251.72
2023-05-19T16:27:19.133Z,95244.56
2023-05-19T16:29:45.875Z,95236.25
2023-05-19T16:32:12.998Z,95234.41
2023-05-19T16:34:39.929Z,95236.72
2023-05-19T16:37:06.628Z,95235.88
2023-05-19T16:39:36.077Z,95238.19
2023-05-19T16:42:03.830Z,95240.34
2023-05-19T16:44:30.501Z,95239.63
2023-05-19T16:46:57.153Z,95239.69
2023-05-19T16:49:23.805Z,95236.38
2023-05-19T16:51:50.477Z,95244.22
2023-05-19T16:54:17.226Z,95244.22
2023-05-19T16:56:44.087Z,95229.75
2023-05-19T16:59:10.713Z,95237.22
2023-05-19T17:01:37.448Z,95227.56
2023-05-19T17:04:04.032Z,95233.78
2023-05-19T17:06:31.203Z,95228.31
2023-05-19T17:08:57.731Z,95237.88
2023-05-19T17:11:24.279Z,95233.78
2023-05-19T17:13:50.989Z,95238.22
2023-05-19T17:16:17.812Z,95234.34
2023-05-19T17:18:44.441Z,95233.63
2023-05-19T17:21:11.025Z,95234.50
2023-05-19T17:23:38.220Z,95226.75
2023-05-19T17:26:04.969Z,95228.56
2023-05-19T17:28:31.783Z,95231.00
2023-05-19T17:30:58.475Z,95241.25
2023-05-19T17:33:25.140Z,95236.97
2023-05-19T17:35:51.780Z,95236.00
2023-05-19T17:38:18.347Z,95240.69
2023-05-19T17:40:44.931Z,95242.44
2023-05-19T17:43:11.610Z,95238.75
2023-05-19T17:45:38.328Z,95248.22
2023-05-19T17:48:05.429Z,95243.69
2023-05-19T17:50:32.402Z,95246.75
2023-05-19T17:52:59.440Z,95240.41
2023-05-19T17:55:29.989Z,95232.22
2023-05-19T17:57:57.432Z,95234.75
2023-05-19T18:00:25.270Z,95234.81
2023-05-19T18:02:52.897Z,95230.19
2023-05-19T18:05:20.153Z,95240.94
2023-05-19T18:07:48.098Z,95242.47
2023-05-19T18:10:16.420Z,95242.50
2023-05-19T18:12:43.307Z,95244.53
2023-05-19T18:15:10.335Z,95248.47
2023-05-19T18:17:38.228Z,95253.09
2023-05-19T18:20:05.354Z,95244.75
2023-05-19T18:22:31.900Z,95244.06
2023-05-19T18:24:58.512Z,95244.03
2023-05-19T18:27:25.065Z,95243.38
2023-05-19T18:29:51.620Z,95247.91
2023-05-19T18:32:18.209Z,95237.38
2023-05-19T18:34:44.769Z,95247.63
2023-05-19T18:37:11.321Z,95252.50
2023-05-19T18:39:37.900Z,95240.44
2023-05-19T18:42:04.811Z,95236.75
2023-05-19T18:44:33.891Z,95251.84
2023-05-19T18:47:01.178Z,95254.78
2023-05-19T18:49:27.737Z,95249.59
2023-05-19T18:51:54.323Z,95254.13
2023-05-19T18:54:21.898Z,95251.16
2023-05-19T18:56:48.599Z,95251.94
2023-05-19T18:59:15.119Z,95248.13
2023-05-19T19:01:42.870Z,95242.84
2023-05-19T19:04:09.749Z,95241.38
2023-05-19T19:06:36.503Z,95242.16
2023-05-19T19:09:03.486Z,95236.88
2023-05-19T19:11:30.083Z,95232.72
2023-05-19T19:13:56.758Z,95233.94
2023-05-19T19:16:23.557Z,95243.66
2023-05-19T19:18:50.296Z,95239.91
2023-05-19T19:21:19.279Z,95245.66
2023-05-19T19:23:46.219Z,95241.06
2023-05-19T19:26:12.919Z,95251.69
2023-05-19T19:28:39.406Z,95259.66
2023-05-19T19:31:05.994Z,95250.16
2023-05-19T19:33:32.741Z,95248.28
2023-05-19T19:35:59.360Z,95250.66
2023-05-19T19:38:26.027Z,95255.16
2023-05-19T19:40:52.683Z,95253.28
2023-05-19T19:43:19.462Z,95258.50
2023-05-19T19:45:46.187Z,95261.25
2023-05-19T19:48:12.807Z,95258.94
2023-05-19T19:50:39.531Z,95256.78
2023-05-19T19:53:06.295Z,95259.78
2023-05-19T19:55:32.883Z,95262.81
2023-05-19T19:57:59.481Z,95265.09
2023-05-19T20:00:26.128Z,95261.31
2023-05-19T20:03:04.283Z,95264.38
2023-05-19T20:05:32.221Z,95254.19
2023-05-19T20:07:58.883Z,95253.47
2023-05-19T20:10:25.769Z,95262.88
2023-05-19T20:12:52.467Z,95264.69
2023-05-19T20:15:19.495Z,95258.03
2023-05-19T20:17:46.226Z,95262.19
2023-05-19T20:20:13.293Z,95262.22
2023-05-19T20:22:40.037Z,95261.44
2023-05-19T20:25:07.061Z,95255.75
2023-05-19T20:27:33.655Z,95258.38
2023-05-19T20:30:00.226Z,95254.66
2023-05-19T20:32:26.946Z,95269.38
2023-05-19T20:34:53.624Z,95260.75
2023-05-19T20:37:21.657Z,95250.19
2023-05-19T20:39:48.285Z,95257.75
2023-05-19T20:42:14.999Z,95252.47
2023-05-19T20:44:41.589Z,95248.69
2023-05-19T20:47:08.529Z,95255.44
2023-05-19T20:49:35.652Z,95260.03
2023-05-19T20:52:02.484Z,95244.94
2023-05-19T20:54:29.185Z,95250.22
2023-05-19T20:56:55.921Z,95248.69
2023-05-19T20:59:22.581Z,95254.00
2023-05-19T21:01:49.314Z,95243.78
2023-05-19T21:04:16.118Z,95250.16
2023-05-19T21:06:42.765Z,95247.56
2023-05-19T21:09:10.732Z,95235.91
2023-05-19T21:11:37.472Z,95241.91
2023-05-19T21:14:04.379Z,95245.69
2023-05-19T21:16:31.576Z,95242.69
2023-05-19T21:18:58.324Z,95244.94
2023-05-19T21:21:26.215Z,95242.72
2023-05-19T21:23:52.930Z,95247.22
2023-05-19T21:26:19.625Z,95234.72
2023-05-19T21:28:46.381Z,95237.47
2023-05-19T21:31:13.107Z,95229.16
2023-05-19T21:33:39.870Z,95235.13
2023-05-19T21:36:06.846Z,95229.09
2023-05-19T21:38:33.515Z,95237.47
2023-05-19T21:41:00.158Z,95234.44
2023-05-19T21:43:26.854Z,95236.75
2023-05-19T21:45:53.354Z,95226.53
2023-05-19T21:48:20.094Z,95228.41
2023-05-19T21:50:51.710Z,95230.66
2023-05-19T21:53:18.263Z,95217.84
2023-05-19T21:55:44.885Z,95227.66
2023-05-19T21:58:11.857Z,95225.31
2023-05-19T22:00:38.850Z,95228.03
2023-05-19T22:03:05.775Z,95233.72
2023-05-19T22:05:35.112Z,95229.97
2023-05-19T22:08:01.894Z,95211.47
2023-05-19T22:10:28.432Z,95220.88
2023-05-19T22:12:55.540Z,95217.47
2023-05-19T22:15:22.248Z,95213.34
2023-05-19T22:17:49.018Z,95212.63
2023-05-19T22:20:15.715Z,95209.94
2023-05-19T22:22:42.236Z,95216.31
2023-05-19T22:25:09.115Z,95212.16
2023-05-19T22:27:36.108Z,95211.81
2023-05-19T22:30:02.725Z,95203.81
2023-05-19T22:32:30.596Z,95197.09
2023-05-19T22:34:57.117Z,95193.72
2023-05-19T22:37:24.478Z,95190.72
2023-05-19T22:39:51.627Z,95208.03
2023-05-19T22:42:18.668Z,95208.00
2023-05-19T22:44:45.932Z,95202.41
2023-05-19T22:47:13.916Z,95199.84
2023-05-19T22:49:41.676Z,95205.84
2023-05-19T22:52:10.454Z,95205.47
2023-05-19T22:54:37.713Z,95207.28
2023-05-19T22:57:04.968Z,95199.78
2023-05-19T22:59:31.571Z,95197.59
2023-05-19T23:01:58.113Z,95196.00
2023-05-19T23:04:24.757Z,95194.03
2023-05-19T23:06:51.528Z,95195.97
2023-05-19T23:09:18.152Z,95196.03
2023-05-19T23:11:45.239Z,95191.50
2023-05-19T23:14:11.892Z,95181.31
2023-05-19T23:16:38.527Z,95175.31
2023-05-19T23:19:05.583Z,95175.78
2023-05-19T23:21:32.961Z,95178.06
2023-05-19T23:23:59.997Z,95177.63
2023-05-19T23:26:26.941Z,95174.22
2023-05-19T23:28:53.479Z,95167.84
2023-05-19T23:31:20.198Z,95168.97
2023-05-19T23:33:46.879Z,95165.94
2023-05-19T23:36:13.664Z,95169.75
2023-05-19T23:38:40.336Z,95170.84
2023-05-19T23:41:06.982Z,95168.19
2023-05-19T23:43:33.644Z,95171.28
2023-05-19T23:46:00.681Z,95169.78
2023-05-19T23:48:31.335Z,95172.75
2023-05-19T23:50:58.667Z,95167.44
2023-05-19T23:53:25.460Z,95167.44
2023-05-19T23:55:52.027Z,95159.19
2023-05-19T23:58:18.825Z,95165.97
